Adams City, Colorado
Current Conditions -  °F | °C
As of 3:53 AM on Wednesday 26 Nov 2014 (Local Time) from KDEN Reporting Station
Overcast Overcast  
Wind Chill: 19°   Ceiling: 3400
Heat Index: 27°   Visibility: 10mi
Dew Point: 23°   Wind: 7mph
Humidity: 85%   Direction: 90°E
Pressure: 30.18"   Gusts: NA
Location:  39.8641°N, 104.821°W
Report Text: KDEN 261053Z 09006KT 10SM OVC034 M03/M05 A3018 RMK AO2 SNE45 SLP219 P0000 T10281050
Loading
Personal Weather Stations






























Interactive Weather Map New forecast layout! Learn more

10-Day Weather Forecast

Advertisements
Track Severe Weather on mobile